Time;durP1;ratioP1;P1;durP2;ratioP2;P2;SDS_P1;SDS_P2;PMS_P1;PMS_P2;Temp;Humidity;BMP_temperature;BMP_pressure;BME280_temperature;BME280_humidity;BME280_pressure;Samples;Min_cycle;Max_cycle;Signal;HPM_P1;HPM_P2
2021/07/11 00:02:25;;;;;;;2.73;1.60;;;;;;;24.86;73.09;97988.78;5051580;28;20564;-70
2021/07/11 00:04:52;;;;;;;1.70;1.47;;;;;;;25.38;72.55;97997.63;5068853;28;20230;-69
2021/07/11 00:07:19;;;;;;;2.07;1.63;;;;;;;25.18;74.41;97992.44;5059467;28;20551;-69
2021/07/11 00:09:46;;;;;;;2.00;1.60;;;;;;;25.05;74.09;97990.44;5051526;28;20200;-69
2021/07/11 00:12:14;;;;;;;1.63;1.50;;;;;;;25.06;74.13;97994.78;5051407;28;20208;-70
2021/07/11 00:14:43;;;;;;;3.17;1.60;;;;;;;24.89;76.35;97983.53;5050977;28;20223;-69
2021/07/11 00:17:10;;;;;;;4.13;1.80;;;;;;;25.02;76.31;97979.28;5051467;28;20212;-70
2021/07/11 00:19:37;;;;;;;3.30;1.73;;;;;;;24.89;76.92;97969.88;5051093;28;20208;-69
2021/07/11 00:22:04;;;;;;;2.40;1.60;;;;;;;24.89;77.43;97978.06;5051176;28;20687;-70
2021/07/11 00:24:33;;;;;;;1.67;1.53;;;;;;;25.16;74.84;97971.97;5051209;28;20242;-70
2021/07/11 00:27:00;;;;;;;1.73;1.33;;;;;;;24.90;77.52;97968.81;5053366;28;20837;-70
2021/07/11 00:29:27;;;;;;;1.67;1.53;;;;;;;24.07;81.92;97961.28;5055179;28;20207;-70
2021/07/11 00:31:56;;;;;;;2.80;1.40;;;;;;;24.51;79.70;97970.88;5055205;28;20212;-69
2021/07/11 00:34:23;;;;;;;2.20;1.80;;;;;;;24.37;79.12;97967.22;5054510;28;20227;-70
2021/07/11 00:36:50;;;;;;;3.83;1.73;;;;;;;24.51;80.43;97975.53;5054902;28;20207;-71
2021/07/11 00:39:18;;;;;;;3.30;1.70;;;;;;;24.58;78.31;97971.38;5054553;28;20213;-70
2021/07/11 00:41:45;;;;;;;1.77;1.57;;;;;;;24.09;83.12;97975.44;5054704;28;20207;-70
2021/07/11 00:44:12;;;;;;;2.10;1.70;;;;;;;24.26;79.96;97984.00;5054605;28;20692;-70
2021/07/11 00:46:40;;;;;;;2.60;1.70;;;;;;;24.38;79.39;97978.97;5054587;28;20204;-70
2021/07/11 00:49:08;;;;;;;1.90;1.73;;;;;;;24.25;78.59;97985.09;5054321;28;20213;-70
2021/07/11 00:51:36;;;;;;;4.00;1.50;;;;;;;23.80;79.55;97985.50;5055653;28;20207;-70
2021/07/11 00:54:04;;;;;;;1.70;1.60;;;;;;;24.20;79.49;97985.97;5072525;28;20247;-70
2021/07/11 00:56:32;;;;;;;1.70;1.60;;;;;;;24.17;78.38;97983.81;5074099;28;20209;-70
2021/07/11 00:58:59;;;;;;;1.63;1.53;;;;;;;22.88;81.53;97977.38;5072677;28;20223;-71
2021/07/11 01:01:31;;;;;;;2.87;1.80;;;;;;;23.81;80.44;97985.22;5068767;28;20206;-70
2021/07/11 01:04:02;;;;;;;2.40;1.60;;;;;;;23.95;77.85;97979.94;5063009;28;20231;-70
2021/07/11 01:06:35;;;;;;;2.97;1.67;;;;;;;24.31;77.20;97983.94;5053443;28;20573;-70
2021/07/11 01:09:05;;;;;;;2.57;1.50;;;;;;;23.61;81.17;97971.75;5053112;28;20660;-70
2021/07/11 01:11:35;;;;;;;3.20;1.30;;;;;;;24.29;76.73;97989.69;5054518;28;20214;-70
2021/07/11 01:14:03;;;;;;;2.97;1.90;;;;;;;23.85;79.70;97986.28;5054267;28;20233;-70
2021/07/11 01:16:32;;;;;;;1.57;1.47;;;;;;;24.01;77.10;97987.78;5054019;28;20211;-70
2021/07/11 01:19:05;;;;;;;2.50;1.60;;;;;;;23.85;77.95;97988.16;5053981;28;20210;-70
2021/07/11 01:21:37;;;;;;;1.80;1.57;;;;;;;24.00;77.33;97996.25;5053687;28;20226;-70
2021/07/11 01:24:08;;;;;;;1.40;1.30;;;;;;;23.21;79.65;97996.56;5054016;28;20237;-70
2021/07/11 01:26:37;;;;;;;2.00;1.50;;;;;;;24.10;75.98;97996.16;5053907;28;20209;-70
2021/07/11 01:29:05;;;;;;;3.33;1.50;;;;;;;23.91;77.20;97998.00;5053878;28;20203;-69
2021/07/11 01:31:33;;;;;;;3.20;1.33;;;;;;;24.15;75.72;97994.19;5053851;28;20217;-70
2021/07/11 01:34:01;;;;;;;2.60;1.60;;;;;;;23.99;75.98;97990.00;5054264;28;20229;-70
2021/07/11 01:36:28;;;;;;;2.03;1.53;;;;;;;24.16;75.99;97995.00;5053510;28;20216;-70
2021/07/11 01:38:56;;;;;;;2.60;1.67;;;;;;;24.48;77.26;97992.50;5052737;28;20209;-70
2021/07/11 01:41:23;;;;;;;2.20;1.63;;;;;;;24.56;72.05;97994.56;5053838;28;20668;-70
2021/07/11 01:43:54;;;;;;;2.37;1.40;;;;;;;24.30;73.64;97991.31;5054058;28;20257;-70
2021/07/11 01:46:21;;;;;;;2.10;1.50;;;;;;;24.61;73.06;97987.19;5054249;28;20218;-70
2021/07/11 01:48:49;;;;;;;3.00;1.90;;;;;;;24.42;72.76;97988.19;5072856;28;20668;-70
2021/07/11 01:51:17;;;;;;;2.33;1.80;;;;;;;24.24;72.32;97995.22;5064520;28;20682;-69
2021/07/11 01:53:47;;;;;;;1.50;1.40;;;;;;;24.44;72.48;97991.44;5066361;28;20217;-70
2021/07/11 01:56:15;;;;;;;2.20;1.73;;;;;;;24.41;72.59;97990.09;5053451;28;20210;-70
2021/07/11 01:58:43;;;;;;;2.43;1.40;;;;;;;23.91;75.67;97993.34;5053568;28;20660;-70
2021/07/11 02:01:13;;;;;;;2.20;1.90;;;;;;;24.02;77.24;97989.41;5053734;28;20211;-70
2021/07/11 02:03:40;;;;;;;2.37;1.60;;;;;;;24.19;74.63;97999.88;5053465;28;20326;-69
2021/07/11 02:06:09;;;;;;;2.53;1.50;;;;;;;24.46;72.91;98008.31;5067450;28;20202;-70
2021/07/11 02:08:37;;;;;;;1.47;1.37;;;;;;;24.92;71.17;98009.44;5056800;28;20210;-69
2021/07/11 02:11:06;;;;;;;2.10;1.60;;;;;;;23.55;78.71;98002.03;5073288;28;20200;-70
2021/07/11 02:13:37;;;;;;;2.87;1.50;;;;;;;24.73;71.89;98011.34;5053689;28;20235;-71
2021/07/11 02:16:07;;;;;;;1.60;1.40;;;;;;;24.83;69.76;98009.28;5068440;28;20678;-70
2021/07/11 02:18:39;;;;;;;1.90;1.60;;;;;;;24.89;70.92;98010.84;5054057;28;20221;-70
2021/07/11 02:21:07;;;;;;;2.37;1.60;;;;;;;25.04;69.50;98004.38;5053146;28;20209;-69
2021/07/11 02:23:35;;;;;;;2.10;1.40;;;;;;;24.66;71.84;97989.03;5056442;28;20231;-70
2021/07/11 02:26:03;;;;;;;3.03;1.60;;;;;;;24.94;70.26;97996.31;5066341;28;20973;-70
2021/07/11 02:28:30;;;;;;;2.60;1.90;;;;;;;24.65;71.41;97993.69;5073066;28;20209;-70
2021/07/11 02:31:00;;;;;;;2.23;1.40;;;;;;;24.53;73.26;97992.44;5058341;28;20581;-70
2021/07/11 02:33:32;;;;;;;3.87;1.70;;;;;;;24.40;72.82;97996.66;5070064;28;20219;-70
2021/07/11 02:36:01;;;;;;;2.60;1.60;;;;;;;24.65;72.73;97992.88;5052363;28;20555;-70
2021/07/11 02:38:40;;;;;;;1.73;1.57;;;;;;;24.24;75.00;97997.13;5052548;28;20210;-70
2021/07/11 02:41:08;;;;;;;2.07;1.53;;;;;;;24.66;74.83;97998.03;5060476;28;20637;-71
2021/07/11 02:43:35;;;;;;;4.13;1.80;;;;;;;24.46;72.66;98002.88;5056476;28;20229;-70
2021/07/11 02:46:03;;;;;;;2.40;1.60;;;;;;;24.44;75.18;97999.63;5068997;28;20622;-70
2021/07/11 02:48:31;;;;;;;2.23;1.63;;;;;;;24.72;74.64;97999.59;5064223;28;20206;-70
2021/07/11 02:51:00;;;;;;;2.63;1.30;;;;;;;24.06;77.81;98001.38;5058060;28;20203;-70
2021/07/11 02:53:28;;;;;;;2.90;1.70;;;;;;;24.56;75.94;98000.84;5070917;28;20217;-70
2021/07/11 02:55:57;;;;;;;2.23;1.70;;;;;;;25.05;73.40;98004.09;5064357;28;20195;-70
2021/07/11 02:58:27;;;;;;;2.73;1.83;;;;;;;24.87;73.26;97993.16;5054181;28;20246;-70
2021/07/11 03:00:54;;;;;;;1.70;1.50;;;;;;;24.40;76.09;97993.94;5060837;28;20202;-70
2021/07/11 03:03:23;;;;;;;2.20;1.57;;;;;;;25.23;70.40;98005.22;5071061;28;20259;-70
2021/07/11 03:05:50;;;;;;;1.70;1.60;;;;;;;25.08;70.14;97997.25;5055660;28;20250;-71
2021/07/11 03:08:19;;;;;;;2.70;1.67;;;;;;;24.66;73.27;97986.28;5052236;28;20659;-70
2021/07/11 03:10:47;;;;;;;1.60;1.50;;;;;;;24.41;74.57;97992.84;5056841;28;20210;-70
2021/07/11 03:13:16;;;;;;;1.70;1.60;;;;;;;24.71;74.29;97991.69;5055372;28;20228;-70
2021/07/11 03:15:43;;;;;;;2.03;1.47;;;;;;;24.04;78.09;97991.84;5061132;28;20191;-70
2021/07/11 03:18:10;;;;;;;2.57;1.50;;;;;;;24.55;73.62;97992.94;5072177;28;20211;-70
2021/07/11 03:20:38;;;;;;;3.27;1.57;;;;;;;24.67;73.68;97993.41;5059534;28;20293;-70
2021/07/11 03:23:06;;;;;;;3.63;1.70;;;;;;;24.66;72.72;97999.94;5063563;28;20230;-70
2021/07/11 03:25:35;;;;;;;3.10;1.43;;;;;;;24.69;72.84;98002.09;5063363;28;20711;-69
2021/07/11 03:28:06;;;;;;;1.57;1.47;;;;;;;24.78;73.61;98003.09;5063995;28;20206;-70
2021/07/11 03:30:37;;;;;;;4.20;1.50;;;;;;;24.62;72.82;98005.16;5052253;28;20199;-71
2021/07/11 03:33:06;;;;;;;1.57;1.43;;;;;;;24.48;73.47;98004.19;5052172;28;20596;-70
2021/07/11 03:35:36;;;;;;;2.43;1.67;;;;;;;24.66;73.75;98002.66;5064081;28;20217;-70
2021/07/11 03:38:05;;;;;;;2.23;1.40;;;;;;;24.22;75.74;97999.31;5065789;28;20740;-70
2021/07/11 03:40:37;;;;;;;3.43;1.80;;;;;;;24.78;73.05;98006.63;5062990;28;20659;-70
2021/07/11 03:43:07;;;;;;;1.70;1.33;;;;;;;24.83;72.86;98012.00;5059009;28;20226;-70
2021/07/11 03:45:35;;;;;;;2.37;1.50;;;;;;;24.83;72.68;98006.56;5063295;28;20225;-70
2021/07/11 03:48:06;;;;;;;1.57;1.40;;;;;;;24.66;74.36;98002.66;5064943;28;20219;-69
2021/07/11 03:50:34;;;;;;;2.00;1.60;;;;;;;24.88;72.98;98006.50;5054587;28;20206;-71
2021/07/11 03:53:06;;;;;;;5.70;1.83;;;;;;;24.74;73.33;98004.78;5071760;28;20589;-70
2021/07/11 03:55:36;;;;;;;2.10;1.70;;;;;;;24.86;72.96;98008.72;5069966;28;20201;-71
2021/07/11 03:58:03;;;;;;;2.17;1.40;;;;;;;24.86;73.11;98013.34;5051962;28;20203;-70
2021/07/11 04:00:31;;;;;;;2.80;1.50;;;;;;;24.81;72.55;98007.94;5061122;28;20226;-70
2021/07/11 04:03:02;;;;;;;3.50;1.80;;;;;;;24.34;75.53;98002.47;5058383;28;20591;-70
2021/07/11 04:05:38;;;;;;;1.57;1.47;;;;;;;24.84;73.35;98010.94;5069679;28;20248;-70
2021/07/11 04:08:11;;;;;;;2.37;1.70;;;;;;;25.02;72.00;98015.59;5055930;28;20212;-70
2021/07/11 04:10:40;;;;;;;3.27;1.70;;;;;;;24.90;73.04;98009.75;5072915;28;20207;-71
2021/07/11 04:13:07;;;;;;;3.03;1.50;;;;;;;24.99;72.17;98009.91;5075914;28;20222;-70
2021/07/11 04:15:35;;;;;;;1.83;1.43;;;;;;;25.12;71.22;98017.38;5058569;28;20250;-70
2021/07/11 04:18:04;;;;;;;1.70;1.60;;;;;;;25.09;71.23;98020.72;5055649;28;20590;-70
2021/07/11 04:20:32;;;;;;;2.27;1.57;;;;;;;24.97;71.57;98018.41;5057028;28;20207;-70
2021/07/11 04:23:01;;;;;;;4.23;1.80;;;;;;;25.17;70.58;98029.06;5055264;28;20239;-70
2021/07/11 04:25:31;;;;;;;2.20;1.53;;;;;;;25.10;70.76;98030.53;5055127;28;20235;-70
2021/07/11 04:28:00;;;;;;;2.30;1.53;;;;;;;25.22;69.91;98031.72;5059217;28;20198;-70
2021/07/11 04:30:28;;;;;;;3.10;1.50;;;;;;;24.86;70.77;98027.81;5055326;28;20203;-70
2021/07/11 04:32:56;;;;;;;1.60;1.50;;;;;;;25.16;69.71;98030.16;5055186;28;20198;-70
2021/07/11 04:35:23;;;;;;;2.53;1.23;;;;;;;25.09;69.72;98026.16;5066875;28;20215;-70
2021/07/11 04:37:50;;;;;;;1.47;1.30;;;;;;;24.40;74.19;98012.22;5055372;28;20201;-70
2021/07/11 04:40:18;;;;;;;2.07;1.40;;;;;;;24.78;71.89;98014.00;5054977;28;20221;-70
2021/07/11 04:42:46;;;;;;;1.83;1.40;;;;;;;24.38;74.91;98023.41;5055268;28;20207;-71
2021/07/11 04:45:16;;;;;;;3.50;1.60;;;;;;;24.41;75.26;98027.47;5054660;28;20227;-70
2021/07/11 04:47:43;;;;;;;3.67;1.37;;;;;;;25.24;69.98;98034.97;5059495;28;20624;-70
2021/07/11 04:50:12;;;;;;;2.23;1.60;;;;;;;25.27;69.24;98037.16;5069721;28;20224;-70
2021/07/11 04:52:39;;;;;;;2.20;1.50;;;;;;;25.33;68.65;98035.97;5054879;28;20198;-71
2021/07/11 04:55:09;;;;;;;3.00;1.80;;;;;;;24.91;70.82;98033.22;5054692;28;20217;-70
2021/07/11 04:57:36;;;;;;;3.50;1.80;;;;;;;24.92;70.60;98034.03;5069500;28;20201;-70
2021/07/11 05:00:06;;;;;;;2.97;1.60;;;;;;;25.39;68.99;98044.91;5058085;28;20216;-70
2021/07/11 05:02:34;;;;;;;2.57;1.20;;;;;;;25.22;69.57;98041.81;5067400;28;20227;-70
2021/07/11 05:05:02;;;;;;;2.33;1.73;;;;;;;25.10;69.63;98034.06;5059222;28;20235;-70
2021/07/11 05:07:29;;;;;;;3.00;1.50;;;;;;;25.42;69.15;98044.31;5065136;28;20213;-70
2021/07/11 05:09:56;;;;;;;1.87;1.40;;;;;;;24.80;70.94;98050.00;5067158;28;20243;-70
2021/07/11 05:12:24;;;;;;;2.13;1.60;;;;;;;24.96;69.46;98048.72;5062514;28;20231;-70
2021/07/11 05:14:51;;;;;;;2.63;1.57;;;;;;;24.68;71.69;98047.69;5054232;28;20220;-70
2021/07/11 05:17:19;;;;;;;2.63;1.40;;;;;;;25.46;67.01;98053.56;5065741;28;20303;-70
2021/07/11 05:19:47;;;;;;;2.50;1.60;;;;;;;25.65;66.92;98049.69;5059083;28;20298;-70
2021/07/11 05:22:14;;;;;;;1.60;1.50;;;;;;;25.80;65.98;98060.41;5068214;28;20211;-70
2021/07/11 05:24:42;;;;;;;1.70;1.43;;;;;;;25.44;66.99;98058.50;5070822;28;20220;-71
2021/07/11 05:27:09;;;;;;;1.87;1.60;;;;;;;25.33;68.58;98060.56;5074179;28;20203;-70
2021/07/11 05:29:36;;;;;;;4.30;1.60;;;;;;;25.33;68.30;98054.28;5062923;28;20202;-71
2021/07/11 05:32:04;;;;;;;2.17;1.90;;;;;;;25.26;68.52;98051.09;5054169;28;20204;-71
2021/07/11 05:34:32;;;;;;;2.50;1.37;;;;;;;25.72;66.58;98049.31;5073521;28;20230;-70
2021/07/11 05:37:00;;;;;;;2.47;1.50;;;;;;;25.39;67.66;98047.66;5067074;28;20193;-70
2021/07/11 05:39:28;;;;;;;1.63;1.40;;;;;;;25.34;68.67;98051.25;5068680;28;20209;-70
2021/07/11 05:41:55;;;;;;;1.67;1.53;;;;;;;25.82;66.86;98054.66;5067198;28;20225;-70
2021/07/11 05:44:22;;;;;;;2.00;1.57;;;;;;;25.99;65.14;98065.91;5054070;28;20226;-70
2021/07/11 05:46:49;;;;;;;14.53;1.77;;;;;;;25.73;66.07;98056.41;5054039;28;20225;-67
2021/07/11 05:49:17;;;;;;;3.43;1.60;;;;;;;26.47;63.40;98068.06;5053970;28;20255;-70
2021/07/11 05:51:44;;;;;;;1.80;1.40;;;;;;;26.00;65.30;98064.78;5066424;28;20201;-70
2021/07/11 05:54:13;;;;;;;2.10;1.50;;;;;;;26.29;62.48;98073.63;5054461;28;20226;-70
2021/07/11 05:56:40;;;;;;;4.70;1.57;;;;;;;26.60;61.87;98072.00;5058763;28;20220;-68
2021/07/11 05:59:07;;;;;;;4.03;1.83;;;;;;;26.82;60.36;98080.31;5056198;28;20220;-68
2021/07/11 06:01:34;;;;;;;2.40;1.40;;;;;;;26.02;62.30;98077.06;5053810;28;20228;-70
2021/07/11 06:04:02;;;;;;;3.10;1.43;;;;;;;26.76;60.24;98076.06;5068564;28;20224;-70
2021/07/11 06:06:29;;;;;;;2.00;1.70;;;;;;;26.77;59.88;98074.94;5054381;28;20236;-71
2021/07/11 06:08:57;;;;;;;2.57;1.87;;;;;;;26.80;60.31;98080.63;5053447;28;20206;-68
2021/07/11 06:11:25;;;;;;;3.00;1.70;;;;;;;26.36;60.45;98084.97;5063854;28;20267;-67
2021/07/11 06:13:52;;;;;;;1.67;1.57;;;;;;;27.02;58.82;98075.25;5065181;28;20218;-70
2021/07/11 06:16:20;;;;;;;1.97;1.50;;;;;;;26.78;58.07;98080.13;5073131;28;20197;-70
2021/07/11 06:18:47;;;;;;;2.90;1.93;;;;;;;26.97;55.68;98088.25;5073733;28;20201;-70
2021/07/11 06:21:14;;;;;;;1.47;1.20;;;;;;;26.79;55.42;98091.88;5072550;28;20209;-67
2021/07/11 06:23:41;;;;;;;2.53;1.67;;;;;;;26.34;57.81;98092.66;5056812;28;20230;-68
2021/07/11 06:26:09;;;;;;;1.83;1.63;;;;;;;27.03;53.93;98096.06;5053181;28;20233;-68
2021/07/11 06:28:37;;;;;;;2.87;1.30;;;;;;;24.96;59.77;98084.22;5069227;28;20541;-68
2021/07/11 06:31:04;;;;;;;4.80;1.47;;;;;;;26.20;55.71;98089.88;5072154;28;20205;-68
2021/07/11 06:33:32;;;;;;;2.87;1.50;;;;;;;25.35;59.48;98084.84;5071824;28;20221;-71
2021/07/11 06:35:59;;;;;;;1.30;1.13;;;;;;;25.72;56.73;98091.16;5052609;28;20202;-70
2021/07/11 06:38:26;;;;;;;3.50;1.40;;;;;;;25.22;59.52;98077.34;5056981;28;20202;-70
2021/07/11 06:40:53;;;;;;;1.67;1.47;;;;;;;26.67;53.60;98086.09;5059484;28;20202;-70
2021/07/11 06:43:20;;;;;;;1.80;1.20;;;;;;;27.55;49.09;98097.44;5053420;28;20229;-67
2021/07/11 06:45:49;;;;;;;2.23;1.70;;;;;;;26.32;54.75;98095.72;5061851;28;20226;-71
2021/07/11 06:48:16;;;;;;;1.57;1.40;;;;;;;25.47;56.81;98085.22;5069913;28;20202;-70
2021/07/11 06:50:45;;;;;;;1.97;1.67;;;;;;;25.21;57.87;98082.00;5065534;28;20281;-70
2021/07/11 06:53:12;;;;;;;3.50;1.40;;;;;;;27.52;50.15;98093.38;5060746;28;20721;-71
2021/07/11 06:55:40;;;;;;;2.13;1.47;;;;;;;27.24;50.21;98099.22;5052712;28;20205;-68
2021/07/11 06:58:07;;;;;;;1.87;1.40;;;;;;;26.13;52.84;98097.66;5059690;28;20210;-68
2021/07/11 07:00:34;;;;;;;1.63;1.23;;;;;;;27.00;50.60;98098.59;5065471;28;20202;-69
2021/07/11 07:03:03;;;;;;;1.90;1.30;;;;;;;27.06;51.44;98092.69;5054754;28;20233;-68
2021/07/11 07:05:30;;;;;;;3.10;1.37;;;;;;;27.13;50.19;98103.25;5052167;28;20226;-70
2021/07/11 07:07:57;;;;;;;2.30;1.50;;;;;;;27.20;50.00;98098.19;5052418;28;20202;-68
2021/07/11 07:10:25;;;;;;;1.27;1.03;;;;;;;26.82;50.00;98102.22;5066427;28;20213;-68
2021/07/11 07:12:52;;;;;;;3.07;1.50;;;;;;;25.78;54.45;98089.97;5065327;28;20198;-70
2021/07/11 07:15:19;;;;;;;1.93;1.50;;;;;;;25.46;56.68;98086.34;5063766;28;20206;-70
2021/07/11 07:17:47;;;;;;;4.20;1.30;;;;;;;27.06;51.12;98095.44;5059505;28;20197;-71
2021/07/11 07:20:16;;;;;;;2.77;1.53;;;;;;;26.64;51.55;98108.56;5068969;28;20205;-70
2021/07/11 07:22:43;;;;;;;2.00;1.30;;;;;;;26.27;54.06;98100.44;5059461;28;20220;-71
2021/07/11 07:25:13;;;;;;;4.30;1.40;;;;;;;26.82;50.94;98104.97;5052109;28;20706;-70
2021/07/11 07:27:40;;;;;;;1.83;1.60;;;;;;;26.91;50.15;98109.44;5064114;28;20197;-68
2021/07/11 07:30:09;;;;;;;2.53;1.60;;;;;;;27.46;49.32;98107.53;5069168;28;20213;-68
2021/07/11 07:32:36;;;;;;;1.33;1.20;;;;;;;28.11;47.58;98104.13;5069086;28;20206;-68
2021/07/11 07:35:05;;;;;;;2.43;1.30;;;;;;;27.33;48.67;98106.44;5051876;28;20214;-72
2021/07/11 07:37:34;;;;;;;1.33;1.20;;;;;;;27.07;49.63;98118.19;5059387;28;20213;-67
2021/07/11 07:40:04;;;;;;;1.77;1.30;;;;;;;27.25;48.28;98112.63;5066709;28;20205;-70
2021/07/11 07:42:31;;;;;;;1.70;1.40;;;;;;;27.53;47.69;98116.97;5063381;28;20205;-70
2021/07/11 07:44:58;;;;;;;1.63;1.40;;;;;;;27.06;49.45;98111.09;5058194;28;20233;-68
2021/07/11 07:47:26;;;;;;;1.57;1.47;;;;;;;27.15;48.76;98110.06;5061829;28;20226;-69
2021/07/11 07:49:53;;;;;;;1.63;1.40;;;;;;;27.96;46.61;98123.69;5063688;28;20205;-68
2021/07/11 07:52:21;;;;;;;1.43;1.30;;;;;;;27.64;46.54;98125.78;5072238;28;20206;-68
2021/07/11 07:54:49;;;;;;;1.40;1.27;;;;;;;26.66;51.74;98120.84;5058440;28;20591;-69
2021/07/11 07:57:17;;;;;;;1.60;1.40;;;;;;;26.90;49.99;98120.72;5066973;28;20197;-69
2021/07/11 07:59:44;;;;;;;2.03;1.60;;;;;;;27.55;49.16;98119.38;5066829;28;20205;-69
2021/07/11 08:02:11;;;;;;;3.40;1.63;;;;;;;28.59;46.19;98120.81;5063728;28;20571;-68
2021/07/11 08:04:38;;;;;;;2.33;1.33;;;;;;;28.47;44.59;98123.31;5067691;28;20224;-68
2021/07/11 08:07:06;;;;;;;1.63;1.30;;;;;;;28.14;45.38;98124.66;5051922;28;20684;-68
2021/07/11 08:09:33;;;;;;;2.57;1.30;;;;;;;27.79;47.15;98119.97;5063010;28;20584;-68
2021/07/11 08:12:02;;;;;;;2.00;1.60;;;;;;;27.21;48.83;98116.28;5066657;28;20205;-68
2021/07/11 08:14:29;;;;;;;1.50;1.30;;;;;;;27.37;45.88;98125.81;5071610;28;20235;-68
2021/07/11 08:16:57;;;;;;;3.10;1.50;;;;;;;27.86;45.06;98123.94;5071693;28;20197;-69
2021/07/11 08:19:25;;;;;;;2.37;1.47;;;;;;;27.28;46.38;98125.72;5071769;28;20549;-68
2021/07/11 08:21:53;;;;;;;2.53;1.27;;;;;;;28.09;45.05;98130.25;5063006;28;20663;-70
2021/07/11 08:24:21;;;;;;;1.77;1.17;;;;;;;26.81;47.41;98119.78;5071537;28;20261;-70
2021/07/11 08:26:48;;;;;;;1.60;1.20;;;;;;;28.21;44.48;98119.53;5056738;28;20227;-70
2021/07/11 08:29:17;;;;;;;1.90;1.13;;;;;;;28.17;42.45;98124.84;5061295;28;20215;-67
2021/07/11 08:31:45;;;;;;;1.70;1.20;;;;;;;28.14;42.32;98128.22;5063105;28;20668;-71
2021/07/11 08:34:12;;;;;;;1.20;1.10;;;;;;;27.21;44.44;98138.22;5055501;28;20276;-67
2021/07/11 08:36:40;;;;;;;1.23;1.13;;;;;;;27.76;43.17;98137.84;5061672;28;20198;-67
2021/07/11 08:39:07;;;;;;;3.27;1.20;;;;;;;28.27;42.25;98127.34;5059547;28;20210;-70
2021/07/11 08:41:37;;;;;;;1.13;1.00;;;;;;;26.83;45.06;98139.44;5070950;28;20286;-70
2021/07/11 08:44:05;;;;;;;1.60;1.20;;;;;;;27.37;44.24;98139.53;5071255;28;20218;-68
2021/07/11 08:46:34;;;;;;;1.93;1.30;;;;;;;27.42;43.47;98140.22;5070070;28;20700;-69
2021/07/11 08:49:01;;;;;;;1.60;1.30;;;;;;;27.98;43.93;98135.16;5070011;28;20199;-70
2021/07/11 08:51:28;;;;;;;2.10;1.40;;;;;;;28.86;42.10;98148.09;5055678;28;20203;-70
2021/07/11 08:53:56;;;;;;;1.63;1.17;;;;;;;29.15;40.13;98151.19;5069059;28;20219;-70
2021/07/11 08:56:25;;;;;;;1.77;1.30;;;;;;;29.07;40.38;98161.03;5059025;28;20212;-71
2021/07/11 08:58:54;;;;;;;1.50;1.10;;;;;;;28.62;38.57;98153.13;5074589;28;20204;-70
2021/07/11 09:01:22;;;;;;;2.30;1.40;;;;;;;28.35;40.07;98161.47;5055991;28;20218;-70
2021/07/11 09:04:03;;;;;;;1.93;1.17;;;;;;;27.61;42.82;98153.84;5055202;28;20216;-71
2021/07/11 09:06:41;;;;;;;2.10;1.27;;;;;;;27.44;42.77;98153.63;5054276;28;20235;-69
2021/07/11 09:09:08;;;;;;;1.40;1.30;;;;;;;28.16;42.66;98156.16;5069434;28;20676;-70
2021/07/11 09:11:46;;;;;;;2.93;1.40;;;;;;;27.97;41.80;98161.00;5074149;28;20197;-68
2021/07/11 09:14:18;;;;;;;1.97;1.40;;;;;;;28.24;41.68;98171.06;5065481;28;20227;-70
2021/07/11 09:16:45;;;;;;;3.47;1.37;;;;;;;27.88;42.70;98160.09;5066090;28;20197;-70
2021/07/11 09:19:25;;;;;;;2.17;1.10;;;;;;;27.83;42.73;98170.38;5072615;28;20198;-70
2021/07/11 09:21:57;;;;;;;2.73;1.33;;;;;;;27.88;42.91;98168.31;5053959;28;20188;-70
2021/07/11 09:24:25;;;;;;;4.13;1.43;;;;;;;27.83;42.22;98171.16;5064051;28;20567;-69
2021/07/11 09:26:55;;;;;;;3.13;1.40;;;;;;;28.12;41.75;98165.34;5065834;28;20247;-70
2021/07/11 09:29:27;;;;;;;2.90;1.30;;;;;;;29.38;39.17;98169.22;5072413;28;20214;-70
2021/07/11 09:31:54;;;;;;;2.33;1.30;;;;;;;29.27;38.65;98170.66;5066394;28;20214;-70
2021/07/11 09:34:24;;;;;;;2.00;1.20;;;;;;;29.56;37.14;98179.22;5055220;28;20228;-70
2021/07/11 09:37:06;;;;;;;1.50;1.20;;;;;;;30.19;36.50;98176.75;5053577;28;20203;-70
2021/07/11 09:39:33;;;;;;;1.40;1.20;;;;;;;30.28;35.98;98180.31;5073792;28;20205;-70
2021/07/11 09:42:02;;;;;;;5.07;1.23;;;;;;;29.71;38.13;98165.00;5059086;28;20292;-70
2021/07/11 09:44:39;;;;;;;1.30;1.13;;;;;;;29.50;38.80;98170.25;5053728;28;20233;-70
2021/07/11 09:47:16;;;;;;;2.65;1.25;;;;;;;29.73;38.98;98177.31;5054079;28;20220;-70
2021/07/11 09:49:45;;;;;;;2.08;1.58;;;;;;;28.71;41.03;98167.72;5057664;28;20201;-70
2021/07/11 09:52:12;;;;;;;2.22;1.40;;;;;;;28.94;40.47;98166.59;5056302;28;20686;-70
2021/07/11 09:54:39;;;;;;;1.48;1.25;;;;;;;28.60;40.31;98163.63;5061217;28;20234;-69
2021/07/11 09:57:10;;;;;;;1.98;1.42;;;;;;;29.40;39.01;98167.00;5064755;28;20200;-71
2021/07/11 09:59:37;;;;;;;1.80;1.40;;;;;;;29.01;40.52;98166.97;5064737;28;20563;-70
2021/07/11 10:02:05;;;;;;;3.47;1.40;;;;;;;28.97;40.61;98160.47;5065744;28;20204;-71
2021/07/11 10:04:33;;;;;;;3.45;1.50;;;;;;;29.47;39.81;98159.06;5073420;28;20224;-70
2021/07/11 10:07:02;;;;;;;2.63;1.33;;;;;;;29.14;39.98;98158.63;5064756;28;20221;-70
2021/07/11 10:09:29;;;;;;;1.60;1.27;;;;;;;29.66;39.48;98162.41;5066898;28;20209;-68
2021/07/11 10:11:56;;;;;;;1.50;1.23;;;;;;;29.14;40.17;98161.38;5067021;28;20214;-70
2021/07/11 10:14:24;;;;;;;1.83;1.33;;;;;;;29.94;37.70;98161.03;5065323;28;20226;-70
2021/07/11 10:16:51;;;;;;;1.15;1.05;;;;;;;30.00;38.09;98156.97;5068012;28;20212;-70
2021/07/11 10:19:18;;;;;;;1.40;1.30;;;;;;;30.06;38.05;98161.97;5058286;28;20209;-70
2021/07/11 10:21:47;;;;;;;1.55;1.30;;;;;;;29.70;38.27;98164.19;5067095;28;20202;-68
2021/07/11 10:24:23;;;;;;;1.85;1.30;;;;;;;30.58;37.31;98171.09;5070122;28;20781;-70
2021/07/11 10:26:51;;;;;;;1.25;1.08;;;;;;;30.31;36.27;98172.22;5057657;28;20213;-70
2021/07/11 10:29:20;;;;;;;1.65;1.23;;;;;;;30.33;37.72;98174.66;5054717;28;20217;-70
2021/07/11 10:31:49;;;;;;;3.03;1.50;;;;;;;30.62;37.31;98166.53;5070936;28;20204;-69
2021/07/11 10:34:27;;;;;;;1.20;1.10;;;;;;;30.71;36.66;98161.88;5056514;28;20225;-70
2021/07/11 10:36:54;;;;;;;1.33;1.10;;;;;;;28.32;41.47;98157.41;5066844;28;20198;-70
2021/07/11 10:39:32;;;;;;;1.92;1.30;;;;;;;28.58;41.50;98152.94;5062386;28;20221;-69
2021/07/11 10:41:59;;;;;;;1.83;1.10;;;;;;;30.24;37.71;98166.41;5064549;28;20415;-69
2021/07/11 10:44:27;;;;;;;2.17;1.50;;;;;;;29.69;37.00;98172.78;5064185;28;20227;-70
2021/07/11 10:46:56;;;;;;;1.20;1.10;;;;;;;29.98;36.82;98170.22;5068762;28;20332;-70
2021/07/11 10:49:24;;;;;;;1.35;1.15;;;;;;;30.85;34.51;98179.00;5052730;28;20209;-70
2021/07/11 10:51:53;;;;;;;1.65;1.33;;;;;;;30.19;36.24;98174.00;5066184;28;20202;-70
2021/07/11 10:54:23;;;;;;;1.40;1.10;;;;;;;29.98;37.12;98159.22;5063204;28;20228;-71
2021/07/11 10:56:51;;;;;;;1.42;1.20;;;;;;;27.81;41.20;98156.13;5052611;28;20277;-70
2021/07/11 10:59:29;;;;;;;1.20;1.10;;;;;;;28.44;38.30;98168.69;5055685;28;20216;-68
2021/07/11 11:01:57;;;;;;;2.17;1.20;;;;;;;29.80;37.09;98165.84;5051858;28;20198;-70
2021/07/11 11:04:24;;;;;;;0.88;0.88;;;;;;;30.27;35.97;98176.78;5068785;28;20228;-69
2021/07/11 11:06:52;;;;;;;1.42;1.30;;;;;;;29.24;38.30;98166.59;5064987;28;20221;-69
2021/07/11 11:09:39;;;;;;;2.83;1.60;;;;;;;29.40;37.66;98162.28;5052552;28;20205;-69
2021/07/11 11:12:19;;;;;;;3.45;1.38;;;;;;;28.87;38.65;98169.78;5052546;28;20249;-70
2021/07/11 11:14:54;;;;;;;2.33;1.48;;;;;;;29.36;37.99;98166.00;5052362;28;20218;-70
2021/07/11 11:17:33;;;;;;;3.38;1.23;;;;;;;28.46;39.05;98163.69;5053600;28;20204;-70
2021/07/11 11:20:01;;;;;;;2.05;1.15;;;;;;;28.98;38.16;98162.91;5063472;28;20576;-70
2021/07/11 11:22:29;;;;;;;1.90;1.15;;;;;;;28.93;37.46;98167.72;5065310;28;20235;-70
2021/07/11 11:24:58;;;;;;;1.27;1.17;;;;;;;29.41;36.80;98166.69;5072145;28;20221;-68
2021/07/11 11:27:33;;;;;;;1.42;1.13;;;;;;;29.15;37.17;98164.94;5063530;28;20217;-70
2021/07/11 11:30:11;;;;;;;2.55;1.30;;;;;;;29.37;37.18;98164.88;5062587;28;20200;-69
2021/07/11 11:32:39;;;;;;;1.20;1.10;;;;;;;29.36;37.54;98157.75;5063791;28;20207;-70
2021/07/11 11:35:07;;;;;;;1.85;1.25;;;;;;;30.31;36.29;98160.41;5063793;28;20197;-70
2021/07/11 11:37:38;;;;;;;3.13;1.25;;;;;;;30.33;36.20;98158.13;5071594;28;20220;-70
2021/07/11 11:40:09;;;;;;;1.15;1.02;;;;;;;30.53;35.94;98168.50;5060538;28;20201;-69
2021/07/11 11:42:37;;;;;;;1.80;1.20;;;;;;;29.59;37.57;98162.06;5063606;28;20198;-68